Young America, Minnesota
Current Conditions -  °F | °C
As of 1:14 AM on Monday 22 Dec 2014 (Local Time) from KGYL Reporting Station
Haze Haze  
Wind Chill:   Ceiling: 500
Heat Index:   Visibility: 4mi
Dew Point:   Wind: 12mph
Humidity: 99%   Direction: 140°SE
Pressure: 29.65"   Gusts: 16mph
Location:  44.78°N, 93.92°W
Report Text: KGYL 220714Z AUTO 14010G14KT 4SM BR OVC005 04/04 A2965 RMK AO2 T00370036
Loading
Personal Weather Stations






























Interactive Weather Map New forecast layout! Learn more

10-Day Weather Forecast

Advertisements
Track Severe Weather on mobile